Time;durP1;ratioP1;P1;durP2;ratioP2;P2;SDS_P1;SDS_P2;PMS_P1;PMS_P2;Temp;Humidity;BMP_temperature;BMP_pressure;BME280_temperature;BME280_humidity;BME280_pressure;Samples;Min_cycle;Max_cycle;Signal;HPM_P1;HPM_P2
2023/05/17 01:32:33;;;;;;;;;;;;;;;;;;;;;
2023/05/17 04:09:50;;;;;;;;;;;;;;;;;;;;;
2023/05/17 04:16:04;;;;;;;;;;;;;;;;;;;;;
2023/05/17 04:18:59;;;;;;;;;;;13.20;93.60;;;;;;6309204;22;19947;-95
2023/05/17 04:21:54;;;;;;;;;;;13.20;93.60;;;;;;6313244;22;19955;-95
2023/05/17 04:24:52;;;;;;;;;;;13.20;93.60;;;;;;6312902;22;19907;-96
2023/05/17 04:27:43;;;;;;;;;;;13.20;93.60;;;;;;6289546;22;20501;-95
2023/05/17 04:30:39;;;;;;;;;;;13.20;93.60;;;;;;6283967;22;19981;-95
2023/05/17 04:36:57;;;;;;;;;;;13.10;93.60;;;;;;6312884;22;19956;-94
2023/05/17 04:39:45;;;;;;;;;;;13.10;93.60;;;;;;6286244;22;19937;-95
2023/05/17 04:42:35;;;;;;;;;;;13.30;93.70;;;;;;6312153;22;19915;-96
2023/05/17 04:45:36;;;;;;;;;;;13.10;93.60;;;;;;6312228;22;19924;-96
2023/05/17 04:48:25;;;;;;;;;;;13.10;93.50;;;;;;6311498;22;19903;-95
2023/05/17 04:51:13;;;;;;;;;;;13.20;93.60;;;;;;6287926;22;19909;-96
2023/05/17 04:53:59;;;;;;;;;;;13.10;93.90;;;;;;6314286;22;19909;-95
2023/05/17 04:56:58;;;;;;;;;;;13.10;93.60;;;;;;6312685;22;19925;-96
2023/05/17 04:59:49;;;;;;;;;;;13.20;93.50;;;;;;6342036;22;19978;-96
2023/05/17 05:02:53;;;;;;;;;;;13.10;93.80;;;;;;6317521;22;19960;-96
2023/05/17 05:05:49;;;;;;;;;;;13.20;93.50;;;;;;6337243;22;19910;-96
2023/05/17 05:08:41;;;;;;;;;;;13.10;93.50;;;;;;6313556;22;20384;-96
2023/05/17 05:11:37;;;;;;;;;;;13.20;93.50;;;;;;6314537;22;19906;-96
2023/05/17 05:14:35;;;;;;;;;;;13.10;93.50;;;;;;6340564;22;19902;-95
2023/05/17 05:17:21;;;;;;;;;;;13.10;93.50;;;;;;6314514;22;19903;-95
2023/05/17 05:20:09;;;;;;;;;;;13.20;93.50;;;;;;6313514;22;19902;-96
2023/05/17 05:23:04;;;;;;;;;;;13.20;93.40;;;;;;6340811;22;19921;-96
2023/05/17 05:25:50;;;;;;;;;;;13.20;93.40;;;;;;6313209;22;19956;-96
2023/05/17 05:28:36;;;;;;;;;;;13.20;93.40;;;;;;6311337;22;19906;-96
2023/05/17 05:31:32;;;;;;;;;;;13.20;93.30;;;;;;6313075;22;19906;-96
2023/05/17 05:34:21;;;;;;;;;;;13.20;93.30;;;;;;6344328;22;19903;-95
2023/05/17 05:40:07;;;;;;;;;;;13.30;93.20;;;;;;6342316;22;20308;-96
2023/05/17 05:42:56;;;;;;;;;;;13.20;93.00;;;;;;6313143;22;19906;-96
2023/05/17 05:45:44;;;;;;;;;;;13.30;93.00;;;;;;6313018;22;19930;-96
2023/05/17 05:48:30;;;;;;;;;;;13.40;93.00;;;;;;6313313;22;19968;-96
2023/05/17 05:51:19;;;;;;;;;;;13.50;92.90;;;;;;6312774;22;19956;-95
2023/05/17 05:54:07;;;;;;;;;;;13.40;92.80;;;;;;6313824;22;19914;-96
2023/05/17 05:57:02;;;;;;;;;;;13.80;92.80;;;;;;6310217;22;19902;-96
2023/05/17 05:59:49;;;;;;;;;;;13.50;92.60;;;;;;6342186;22;19913;-96
2023/05/17 06:02:38;;;;;;;;;;;13.50;92.60;;;;;;6342287;22;19907;-96
2023/05/17 06:05:28;;;;;;;;;;;13.60;92.50;;;;;;6340597;22;19964;-96
2023/05/17 06:08:13;;;;;;;;;;;13.60;92.40;;;;;;6313097;22;19910;-96
2023/05/17 06:11:01;;;;;;;;;;;13.60;92.10;;;;;;6313693;22;19951;-96
2023/05/17 06:13:47;;;;;;;;;;;13.70;91.80;;;;;;6311412;22;19902;-96
2023/05/17 06:16:35;;;;;;;;;;;13.70;91.50;;;;;;6314876;22;20205;-96
2023/05/17 06:19:22;;;;;;;;;;;13.80;91.50;;;;;;6313140;22;19955;-96
2023/05/17 06:22:11;;;;;;;;;;;13.80;91.30;;;;;;6315048;22;20350;-96
2023/05/17 06:24:56;;;;;;;;;;;13.90;91.10;;;;;;6314008;22;19978;-95
2023/05/17 06:27:42;;;;;;;;;;;13.90;90.90;;;;;;6314052;22;19903;-96
2023/05/17 06:30:28;;;;;;;;;;;13.90;90.70;;;;;;6311071;22;19909;-96
2023/05/17 06:33:14;;;;;;;;;;;14.00;90.50;;;;;;6312083;22;19902;-95
2023/05/17 06:36:09;;;;;;;;;;;14.00;90.30;;;;;;6313904;22;19907;-95
2023/05/17 06:38:55;;;;;;;;;;;14.10;90.20;;;;;;6314130;22;20099;-96
2023/05/17 06:41:46;;;;;;;;;;;14.10;90.00;;;;;;6341070;22;19987;-96
2023/05/17 06:44:31;;;;;;;;;;;14.40;90.00;;;;;;6312594;22;19927;-96
2023/05/17 06:47:17;;;;;;;;;;;14.20;89.80;;;;;;6313020;22;19902;-96
2023/05/17 06:50:03;;;;;;;;;;;14.20;89.50;;;;;;6312957;22;20300;-96
2023/05/17 06:52:48;;;;;;;;;;;14.30;88.90;;;;;;6312667;22;19907;-96
2023/05/17 06:55:36;;;;;;;;;;;14.30;88.60;;;;;;6312940;22;20239;-96
2023/05/17 06:58:26;;;;;;;;;;;14.40;88.50;;;;;;6340981;22;19973;-96
2023/05/17 07:01:14;;;;;;;;;;;14.40;88.10;;;;;;6340290;22;19902;-96
2023/05/17 07:04:04;;;;;;;;;;;14.40;87.80;;;;;;6344619;22;19909;-96
2023/05/17 07:06:30;;;;;;;;;;;14.50;87.50;;;;;;6313764;22;19902;-96
2023/05/17 07:09:17;;;;;;;;;;;14.50;87.10;;;;;;6288894;22;19982;-96
2023/05/17 07:12:03;;;;;;;;;;;14.50;87.10;;;;;;6342207;22;19924;-95
2023/05/17 07:14:49;;;;;;;;;;;14.50;86.60;;;;;;6315183;22;19938;-96
2023/05/17 07:17:35;;;;;;;;;;;14.60;86.40;;;;;;6314068;22;19902;-96
2023/05/17 07:20:20;;;;;;;;;;;14.60;86.00;;;;;;6313863;22;19913;-95
2023/05/17 07:22:49;;;;;;;;;;;14.60;85.90;;;;;;6314969;22;19907;-96
2023/05/17 07:25:45;;;;;;;;;;;14.70;86.00;;;;;;6317243;22;19907;-96
2023/05/17 07:28:12;;;;;;;;;;;14.70;85.90;;;;;;6345084;22;19903;-96
2023/05/17 07:30:58;;;;;;;;;;;14.70;85.40;;;;;;6318825;22;20343;-96
2023/05/17 07:33:43;;;;;;;;;;;14.80;85.40;;;;;;6317799;22;19941;-96
2023/05/17 07:36:30;;;;;;;;;;;14.80;85.30;;;;;;6347760;22;19964;-95
2023/05/17 07:39:20;;;;;;;;;;;14.80;85.00;;;;;;6343484;22;19911;-96
2023/05/17 07:41:45;;;;;;;;;;;14.80;84.90;;;;;;6314111;22;20350;-95
2023/05/17 07:44:11;;;;;;;;;;;14.80;84.80;;;;;;6312105;22;19978;-96
2023/05/17 07:46:40;;;;;;;;;;;14.90;84.50;;;;;;6313126;22;19928;-96
2023/05/17 07:49:05;;;;;;;;;;;14.90;84.50;;;;;;6312222;22;19902;-96
2023/05/17 07:51:31;;;;;;;;;;;14.90;84.40;;;;;;6312770;22;19902;-96
2023/05/17 07:53:56;;;;;;;;;;;14.90;84.30;;;;;;6313661;22;19909;-96
2023/05/17 07:56:32;;;;;;;;;;;15.00;84.40;;;;;;6315816;22;19914;-96
2023/05/17 07:58:58;;;;;;;;;;;15.00;84.20;;;;;;6315576;22;19960;-96
2023/05/17 08:01:23;;;;;;;;;;;15.00;83.90;;;;;;6312383;22;20254;-95
2023/05/17 08:03:49;;;;;;;;;;;15.00;83.90;;;;;;6313061;22;19993;-95
2023/05/17 08:06:15;;;;;;;;;;;15.00;83.80;;;;;;6311952;22;19903;-95
2023/05/17 08:08:41;;;;;;;;;;;15.10;83.70;;;;;;6340101;22;19937;-96
2023/05/17 08:11:08;;;;;;;;;;;15.00;83.50;;;;;;6312278;22;19903;-94
2023/05/17 08:13:33;;;;;;;;;;;15.00;83.80;;;;;;6311860;22;19903;-95
2023/05/17 08:16:02;;;;;;;;;;;15.10;83.50;;;;;;6312374;22;19909;-94
2023/05/17 08:18:30;;;;;;;;;;;15.10;83.40;;;;;;6312738;22;19910;-96
2023/05/17 08:20:56;;;;;;;;;;;15.10;83.30;;;;;;6311993;22;19907;-96
2023/05/17 08:23:22;;;;;;;;;;;15.00;83.10;;;;;;6311622;22;19997;-96
2023/05/17 08:25:47;;;;;;;;;;;15.10;82.80;;;;;;6312022;22;19903;-95
2023/05/17 08:28:13;;;;;;;;;;;15.10;83.00;;;;;;6312480;22;20122;-96
2023/05/17 08:30:40;;;;;;;;;;;15.00;82.90;;;;;;6312580;22;20264;-95
2023/05/17 08:33:05;;;;;;;;;;;15.00;82.80;;;;;;6312206;22;20533;-96
2023/05/17 08:35:31;;;;;;;;;;;15.00;82.80;;;;;;6312395;22;19903;-96
2023/05/17 08:37:56;;;;;;;;;;;15.00;82.50;;;;;;6312150;22;19903;-96
2023/05/17 08:40:22;;;;;;;;;;;15.00;82.60;;;;;;6312450;22;19903;-96
2023/05/17 08:42:49;;;;;;;;;;;15.00;82.70;;;;;;6312215;22;20331;-96
2023/05/17 08:45:15;;;;;;;;;;;15.10;82.50;;;;;;6312238;22;19984;-96
2023/05/17 08:47:41;;;;;;;;;;;15.00;82.30;;;;;;6312693;22;19903;-96
2023/05/17 08:50:07;;;;;;;;;;;15.00;82.30;;;;;;6312410;22;19913;-96
2023/05/17 08:52:34;;;;;;;;;;;15.00;82.50;;;;;;6312039;22;19977;-95
2023/05/17 08:55:02;;;;;;;;;;;15.00;82.30;;;;;;6311314;22;19907;-96
2023/05/17 08:57:29;;;;;;;;;;;15.00;82.30;;;;;;6311636;22;19903;-94
2023/05/17 08:59:55;;;;;;;;;;;15.00;82.90;;;;;;6312424;22;19903;-94
2023/05/17 09:02:22;;;;;;;;;;;15.00;82.10;;;;;;6311456;22;19914;-95
2023/05/17 09:04:54;;;;;;;;;;;15.00;81.80;;;;;;6311488;22;19918;-91
2023/05/17 09:07:20;;;;;;;;;;;15.00;81.90;;;;;;6312111;22;19902;-94
2023/05/17 09:09:47;;;;;;;;;;;15.00;81.80;;;;;;6312652;22;20159;-96
2023/05/17 09:12:12;;;;;;;;;;;15.00;81.90;;;;;;6312408;22;20316;-96
2023/05/17 09:14:38;;;;;;;;;;;15.00;81.60;;;;;;6311441;22;19910;-95
2023/05/17 09:17:03;;;;;;;;;;;15.00;81.50;;;;;;6311935;22;19909;-96
2023/05/17 09:19:29;;;;;;;;;;;15.10;81.30;;;;;;6339615;22;19930;-94
2023/05/17 09:21:54;;;;;;;;;;;15.10;81.20;;;;;;6311293;22;19910;-95
2023/05/17 09:24:28;;;;;;;;;;;15.10;81.10;;;;;;6312128;22;19911;-96
2023/05/17 09:26:59;;;;;;;;;;;15.10;80.90;;;;;;6311409;22;19903;-96
2023/05/17 09:29:25;;;;;;;;;;;15.10;80.80;;;;;;6312106;22;19934;-95
2023/05/17 09:31:51;;;;;;;;;;;15.10;80.70;;;;;;6338730;22;19910;-95
2023/05/17 09:34:19;;;;;;;;;;;15.10;80.80;;;;;;6311103;22;19903;-96
2023/05/17 09:36:45;;;;;;;;;;;15.10;80.80;;;;;;6311769;22;20351;-96
2023/05/17 09:39:13;;;;;;;;;;;15.10;81.10;;;;;;6339071;22;19907;-96
2023/05/17 09:41:42;;;;;;;;;;;15.20;80.80;;;;;;6339204;22;19911;-96
2023/05/17 09:44:08;;;;;;;;;;;15.20;80.80;;;;;;6311001;22;19903;-96
2023/05/17 09:46:35;;;;;;;;;;;15.20;80.80;;;;;;6311481;22;19909;-96
2023/05/17 09:49:01;;;;;;;;;;;15.20;80.70;;;;;;6310824;22;19952;-95
2023/05/17 09:51:31;;;;;;;;;;;15.20;80.70;;;;;;6311808;22;19941;-95
2023/05/17 09:53:57;;;;;;;;;;;15.20;80.50;;;;;;6310778;22;19902;-95
2023/05/17 09:56:26;;;;;;;;;;;15.20;80.70;;;;;;6310592;22;19937;-96
2023/05/17 09:58:51;;;;;;;;;;;15.20;80.60;;;;;;6311172;22;19921;-95
2023/05/17 10:01:17;;;;;;;;;;;15.20;80.70;;;;;;6311601;22;19907;-96
2023/05/17 10:03:43;;;;;;;;;;;15.20;80.50;;;;;;6311250;22;19913;-96
2023/05/17 10:06:09;;;;;;;;;;;15.10;80.60;;;;;;6311310;22;19937;-96
2023/05/17 10:09:05;;;;;;;;;;;15.20;80.50;;;;;;6316154;22;19930;-96
2023/05/17 10:11:34;;;;;;;;;;;15.20;80.40;;;;;;6324943;22;19930;-96
2023/05/17 10:22:30;;;;;;;;;;;15.10;80.40;;;;;;6278607;22;19914;-96
2023/05/17 10:25:18;;;;;;;;;;;15.10;80.30;;;;;;6331297;22;19929;-96
2023/05/17 10:28:06;;;;;;;;;;;15.10;80.10;;;;;;6327138;22;19903;-96
2023/05/17 10:30:57;;;;;;;;;;;15.10;80.10;;;;;;6331426;22;19907;-96
2023/05/17 10:34:10;;;;;;;;;;;15.00;80.20;;;;;;6237937;23;19959;-96
2023/05/17 10:37:07;;;;;;;;;;;15.10;80.20;;;;;;6158214;23;20384;-96
2023/05/17 10:40:01;;;;;;;;;;;15.10;80.10;;;;;;6124977;23;19897;-96
2023/05/17 10:42:57;;;;;;;;;;;15.10;80.50;;;;;;6146753;23;19901;-96
2023/05/17 10:46:05;;;;;;;;;;;15.10;80.60;;;;;;6122810;23;19948;-96
2023/05/17 10:49:00;;;;;;;;;;;;;;;;;;;;;
2023/05/17 10:51:56;;;;;;;;;;;15.00;79.90;;;;;;6147585;23;19912;-96
2023/05/17 10:54:44;;;;;;;;;;;15.00;80.10;;;;;;6119790;23;19889;-96
2023/05/17 11:00:28;;;;;;;;;;;15.00;80.00;;;;;;6326846;22;19927;-96
2023/05/17 11:03:14;;;;;;;;;;;14.90;80.20;;;;;;6298164;22;19965;-96
2023/05/17 11:06:03;;;;;;;;;;;14.90;79.90;;;;;;6309718;22;19929;-96
2023/05/17 11:08:52;;;;;;;;;;;14.90;79.80;;;;;;6297637;22;20469;-96
2023/05/17 11:11:42;;;;;;;;;;;14.90;79.80;;;;;;6326077;22;19910;-96
2023/05/17 11:14:50;;;;;;;;;;;;;;;;;;;;;
2023/05/17 11:17:57;;;;;;;;;;;14.90;79.80;;;;;;6315296;22;19907;-96
2023/05/17 11:20:49;;;;;;;;;;;14.90;80.00;;;;;;6292939;22;20328;-96
2023/05/17 11:23:35;;;;;;;;;;;14.90;80.50;;;;;;6165014;23;19927;-96
2023/05/17 11:26:11;;;;;;;;;;;14.90;80.80;;;;;;6143486;23;19940;-96
2023/05/17 11:28:37;;;;;;;;;;;14.90;80.90;;;;;;6131120;23;19933;-93
2023/05/17 11:31:04;;;;;;;;;;;14.90;80.80;;;;;;6131133;23;19984;-93
2023/05/17 11:33:43;;;;;;;;;;;14.80;80.30;;;;;;6131724;23;19905;-93
2023/05/17 11:36:18;;;;;;;;;;;14.80;80.20;;;;;;6131326;23;19949;-94
2023/05/17 11:38:47;;;;;;;;;;;14.90;80.70;;;;;;6131186;23;20426;-93
2023/05/17 11:41:17;;;;;;;;;;;14.90;80.70;;;;;;6131185;23;19952;-94
2023/05/17 11:43:47;;;;;;;;;;;14.90;80.90;;;;;;6132403;23;19909;-93
2023/05/17 11:46:20;;;;;;;;;;;14.90;81.20;;;;;;6131163;23;19928;-93
2023/05/17 11:48:46;;;;;;;;;;;14.80;81.30;;;;;;6130337;23;19904;-93
2023/05/17 11:51:15;;;;;;;;;;;14.80;81.30;;;;;;6130436;23;19905;-92
2023/05/17 11:53:42;;;;;;;;;;;14.80;81.50;;;;;;6130786;23;19904;-93
2023/05/17 11:56:08;;;;;;;;;;;14.80;81.50;;;;;;6130642;23;19905;-94
2023/05/17 11:58:33;;;;;;;;;;;14.80;81.30;;;;;;6130771;23;19955;-93
2023/05/17 12:00:59;;;;;;;;;;;14.80;81.30;;;;;;6253806;22;19903;-92
2023/05/17 12:03:28;;;;;;;;;;;14.80;81.30;;;;;;6282419;22;19907;-92
2023/05/17 12:06:04;;;;;;;;;;;14.70;81.50;;;;;;6282053;22;19907;-92
2023/05/17 12:08:30;;;;;;;;;;;14.80;81.70;;;;;;6281487;22;19911;-93
2023/05/17 12:10:56;;;;;;;;;;;14.80;81.20;;;;;;6281619;22;19903;-93
2023/05/17 12:13:22;;;;;;;;;;;14.70;81.10;;;;;;6281245;22;20395;-91
2023/05/17 12:15:54;;;;;;;;;;;14.80;81.40;;;;;;6282195;22;20278;-92
2023/05/17 12:18:19;;;;;;;;;;;14.70;81.10;;;;;;6255846;22;20300;-95
2023/05/17 12:20:52;;;;;;;;;;;14.70;81.30;;;;;;6255153;22;19907;-92
2023/05/17 12:23:24;;;;;;;;;;;14.70;81.00;;;;;;6282450;22;20351;-93
2023/05/17 12:25:49;;;;;;;;;;;14.70;81.00;;;;;;6280906;22;19914;-93
2023/05/17 12:28:17;;;;;;;;;;;14.70;80.80;;;;;;6280740;22;19902;-93
2023/05/17 12:30:43;;;;;;;;;;;14.70;80.70;;;;;;6281782;22;19999;-93
2023/05/17 12:33:09;;;;;;;;;;;14.70;81.00;;;;;;6280400;22;20356;-92
2023/05/17 12:40:45;;;;;;;;;;;14.70;80.80;;;;;;6310188;22;19919;-91
2023/05/17 12:43:11;;;;;;;;;;;14.70;81.00;;;;;;6281428;22;19911;-96
2023/05/17 12:45:50;;;;;;;;;;;14.80;81.10;;;;;;6259452;22;19933;-96
2023/05/17 12:48:35;;;;;;;;;;;14.70;81.10;;;;;;6258801;22;19907;-96
2023/05/17 12:51:05;;;;;;;;;;;14.60;81.10;;;;;;6283442;22;19907;-96
2023/05/17 12:53:40;;;;;;;;;;;14.70;81.30;;;;;;6286466;22;19906;-96
2023/05/17 12:56:07;;;;;;;;;;;14.70;81.30;;;;;;6259989;22;20280;-96
2023/05/17 12:58:42;;;;;;;;;;;14.70;81.20;;;;;;6261889;22;19914;-96
2023/05/17 13:01:12;;;;;;;;;;;14.70;82.00;;;;;;6255166;22;19913;-95
2023/05/17 13:03:38;;;;;;;;;;;14.70;81.20;;;;;;6280078;22;19934;-95
2023/05/17 13:06:09;;;;;;;;;;;14.70;81.20;;;;;;6288480;22;19910;-96
2023/05/17 13:08:56;;;;;;;;;;;14.70;81.70;;;;;;6293670;22;19891;-96
2023/05/17 13:11:25;;;;;;;;;;;14.70;81.40;;;;;;6319059;22;19911;-96
2023/05/17 13:14:00;;;;;;;;;;;;;;;;;;;;;
2023/05/17 13:16:48;;;;;;;;;;;14.70;81.40;;;;;;6318387;22;19933;-96
2023/05/17 13:32:00;;;;;;;;;;;14.60;81.30;;;;;;6283977;22;19919;-96
2023/05/17 13:35:09;;;;;;;;;;;14.80;82.10;;;;;;6278616;22;19910;-96
2023/05/17 13:38:11;;;;;;;;;;;14.60;82.20;;;;;;6186092;23;19905;-96
2023/05/17 13:40:49;;;;;;;;;;;14.60;81.90;;;;;;6187583;23;19979;-96
2023/05/17 13:43:20;;;;;;;;;;;14.60;81.70;;;;;;6161193;23;20259;-96
2023/05/17 13:46:09;;;;;;;;;;;14.60;81.50;;;;;;6166789;23;20558;-96
2023/05/17 13:49:01;;;;;;;;;;;14.60;81.40;;;;;;6184754;23;19904;-96
2023/05/17 13:51:47;;;;;;;;;;;14.60;81.30;;;;;;6160497;23;20330;-96
2023/05/17 13:58:06;;;;;;;;;;;14.80;81.70;;;;;;6109845;23;19921;-96
2023/05/17 14:00:57;;;;;;;;;;;14.60;81.40;;;;;;6108597;23;19917;-96
2023/05/17 14:10:40;;;;;;;;;;;;;;;;;;;;;
2023/05/17 14:13:45;;;;;;;;;;;14.60;81.10;;;;;;6050282;23;20003;-96
2023/05/17 14:16:51;;;;;;;;;;;14.60;81.00;;;;;;6045235;23;19906;-96
2023/05/17 14:19:22;;;;;;;;;;;14.60;81.00;;;;;;6048228;23;19913;-96
2023/05/17 14:21:48;;;;;;;;;;;14.60;80.90;;;;;;6014699;23;19937;-94
2023/05/17 14:24:14;;;;;;;;;;;14.50;80.80;;;;;;6013115;23;19906;-93
2023/05/17 14:26:40;;;;;;;;;;;14.60;81.00;;;;;;6013754;23;19906;-93
2023/05/17 14:29:06;;;;;;;;;;;14.60;80.90;;;;;;6015358;23;19913;-93
2023/05/17 14:31:32;;;;;;;;;;;14.60;81.10;;;;;;6013667;23;19949;-93
2023/05/17 14:34:22;;;;;;;;;;;14.50;81.10;;;;;;6032359;23;19916;-96
2023/05/17 14:37:13;;;;;;;;;;;14.60;81.30;;;;;;6079107;23;19912;-96
2023/05/17 14:40:04;;;;;;;;;;;14.50;81.20;;;;;;6102482;23;20377;-96
2023/05/17 14:46:08;;;;;;;;;;;14.50;81.00;;;;;;6182548;23;19915;-91
2023/05/17 14:49:18;;;;;;;;;;;14.50;81.10;;;;;;6167762;23;19908;-96
2023/05/17 14:58:27;;;;;;;;;;;14.50;81.20;;;;;;6294235;22;19906;-96
2023/05/17 15:10:57;;;;;;;;;;;14.50;81.30;;;;;;6086478;23;19905;-96
2023/05/17 15:13:43;;;;;;;;;;;14.50;81.30;;;;;;6065129;23;19916;-96
2023/05/17 15:16:47;;;;;;;;;;;14.50;81.40;;;;;;6058754;23;19906;-96
2023/05/17 15:29:16;;;;;;;;;;;;;;;;;;;;;
2023/05/17 15:40:25;;;;;;;;;;;14.50;81.40;;;;;;6290753;22;19927;-96
2023/05/17 15:49:34;;;;;;;;;;;;;;;;;;;;;
2023/05/17 15:52:46;;;;;;;;;;;14.50;81.60;;;;;;6075802;23;19905;-95
2023/05/17 15:55:53;;;;;;;;;;;;;;;;;;;;;
2023/05/17 15:58:52;;;;;;;;;;;14.40;81.50;;;;;;6076860;23;19956;-95
2023/05/17 16:01:56;;;;;;;;;;;;;;;;;;;;;
2023/05/17 16:08:13;;;;;;;;;;;;;;;;;;;;;
2023/05/17 16:11:41;;;;;;;;;;;;;;;;;;;;;
2023/05/17 16:14:28;;;;;;;;;;;14.40;81.70;;;;;;5965682;24;19907;-95
2023/05/17 16:20:31;;;;;;;;;;;;;;;;;;;;;
2023/05/17 16:26:40;;;;;;;;;;;14.30;81.80;;;;;;5964979;24;19907;-96
2023/05/17 16:33:08;;;;;;;;;;;;;;;;;;;;;
2023/05/17 16:42:35;;;;;;;;;;;14.30;81.90;;;;;;5835999;24;20387;-96
2023/05/17 16:45:26;;;;;;;;;;;14.30;81.90;;;;;;5785931;24;19909;-96
2023/05/17 16:48:12;;;;;;;;;;;14.30;82.00;;;;;;5796408;24;19953;-96
2023/05/17 16:51:17;;;;;;;;;;;14.30;81.90;;;;;;5794146;24;19916;-96
2023/05/17 16:54:25;;;;;;;;;;;14.30;81.90;;;;;;5795551;24;19939;-96
2023/05/17 16:57:10;;;;;;;;;;;14.30;82.00;;;;;;5882625;24;19907;-96
2023/05/17 16:59:56;;;;;;;;;;;14.30;82.00;;;;;;5933531;24;19911;-96
2023/05/17 17:02:41;;;;;;;;;;;14.30;82.10;;;;;;5932225;24;19918;-95
2023/05/17 17:05:53;;;;;;;;;;;14.20;82.10;;;;;;5953647;24;19978;-95
2023/05/17 17:09:04;;;;;;;;;;;14.20;82.10;;;;;;6002507;23;20252;-96
2023/05/17 17:11:49;;;;;;;;;;;14.30;82.20;;;;;;6039484;23;19906;-95
2023/05/17 17:14:35;;;;;;;;;;;14.20;82.10;;;;;;6064639;23;19989;-96
2023/05/17 17:17:41;;;;;;;;;;;14.20;82.20;;;;;;6039841;23;19906;-96
2023/05/17 17:20:46;;;;;;;;;;;14.30;82.20;;;;;;6156103;23;19950;-96
2023/05/17 17:23:38;;;;;;;;;;;14.20;82.40;;;;;;6133351;23;19919;-96
2023/05/17 17:26:36;;;;;;;;;;;14.20;82.40;;;;;;6131493;23;19904;-96
2023/05/17 17:29:02;;;;;;;;;;;14.20;82.40;;;;;;6238909;22;19903;-95
2023/05/17 17:31:57;;;;;;;;;;;14.20;82.50;;;;;;6228857;22;20236;-96
2023/05/17 17:35:01;;;;;;;;;;;14.20;82.40;;;;;;6184327;23;19910;-95
2023/05/17 17:38:00;;;;;;;;;;;14.20;82.50;;;;;;6160321;23;19979;-95
2023/05/17 17:41:07;;;;;;;;;;;14.20;82.30;;;;;;6186402;23;19952;-96
2023/05/17 17:47:01;;;;;;;;;;;14.20;82.60;;;;;;6096922;23;19929;-96
2023/05/17 17:50:08;;;;;;;;;;;14.10;82.70;;;;;;6072160;23;19953;-95
2023/05/17 17:53:12;;;;;;;;;;;14.10;82.70;;;;;;6093926;23;19912;-96
2023/05/17 17:56:08;;;;;;;;;;;14.10;82.80;;;;;;6008963;23;19910;-95
2023/05/17 17:59:09;;;;;;;;;;;14.10;82.80;;;;;;6009994;23;20058;-96
2023/05/17 18:02:05;;;;;;;;;;;;;;;;;;;;;
2023/05/17 18:05:15;;;;;;;;;;;14.10;82.90;;;;;;6006559;23;19923;-96
2023/05/17 18:08:24;;;;;;;;;;;14.10;82.90;;;;;;6010369;23;19914;-96
2023/05/17 18:11:20;;;;;;;;;;;;;;;;;;;;;
2023/05/17 18:14:20;;;;;;;;;;;14.10;83.00;;;;;;6028407;23;19914;-96
2023/05/17 18:17:10;;;;;;;;;;;14.10;83.10;;;;;;6013604;23;19917;-96
2023/05/17 18:20:01;;;;;;;;;;;14.00;83.10;;;;;;6013717;23;19914;-96
2023/05/17 18:26:18;;;;;;;;;;;14.10;83.40;;;;;;6094740;23;19905;-96
2023/05/17 18:29:03;;;;;;;;;;;14.10;83.40;;;;;;6041443;23;20277;-96
2023/05/17 18:31:51;;;;;;;;;;;14.10;83.40;;;;;;6077082;23;19904;-95
2023/05/17 18:34:37;;;;;;;;;;;14.10;83.60;;;;;;6129021;23;20281;-96
2023/05/17 18:37:36;;;;;;;;;;;14.00;83.60;;;;;;6127924;23;19936;-96
2023/05/17 18:46:55;;;;;;;;;;;14.00;83.80;;;;;;6066324;23;19912;-96
2023/05/17 18:49:56;;;;;;;;;;;14.20;84.00;;;;;;6065660;23;19905;-96
2023/05/17 18:52:44;;;;;;;;;;;14.00;83.90;;;;;;6065738;23;20355;-96
2023/05/17 18:55:41;;;;;;;;;;;14.00;84.00;;;;;;6054988;23;19917;-96
2023/05/17 18:58:38;;;;;;;;;;;14.00;84.00;;;;;;6123256;23;19912;-96
2023/05/17 19:01:42;;;;;;;;;;;14.00;84.80;;;;;;6099631;23;19905;-96
2023/05/17 19:04:31;;;;;;;;;;;14.00;84.10;;;;;;6124893;23;19940;-96
2023/05/17 19:07:30;;;;;;;;;;;;;;;;;;;;;
2023/05/17 19:10:35;;;;;;;;;;;14.00;84.20;;;;;;6039619;23;19910;-96
2023/05/17 19:13:29;;;;;;;;;;;13.90;84.30;;;;;;6053856;23;20064;-96
2023/05/17 19:22:40;;;;;;;;;;;13.90;84.50;;;;;;6185216;23;20261;-95
2023/05/17 19:25:26;;;;;;;;;;;13.90;84.60;;;;;;6183206;23;19908;-96
2023/05/17 19:28:14;;;;;;;;;;;13.80;84.70;;;;;;6159019;23;19904;-95
2023/05/17 19:31:00;;;;;;;;;;;13.90;84.80;;;;;;6158458;23;20008;-96
2023/05/17 19:33:48;;;;;;;;;;;13.90;84.80;;;;;;6159414;23;19908;-95
2023/05/17 19:36:47;;;;;;;;;;;13.80;84.90;;;;;;6184964;23;20253;-95
2023/05/17 19:39:33;;;;;;;;;;;13.90;85.00;;;;;;6159457;23;19939;-96
2023/05/17 19:42:19;;;;;;;;;;;13.80;85.00;;;;;;6250075;22;19911;-95
2023/05/17 19:45:05;;;;;;;;;;;13.80;85.00;;;;;;6251586;22;19935;-95
2023/05/17 19:47:31;;;;;;;;;;;13.80;85.10;;;;;;6250691;22;19903;-96
2023/05/17 19:50:32;;;;;;;;;;;13.80;85.10;;;;;;6225993;22;19994;-95
2023/05/17 19:53:18;;;;;;;;;;;13.80;85.20;;;;;;6247090;22;19903;-95
2023/05/17 19:56:06;;;;;;;;;;;13.80;85.30;;;;;;6251471;22;19929;-96
2023/05/17 19:58:52;;;;;;;;;;;13.80;85.40;;;;;;6247803;22;19903;-95
2023/05/17 20:01:41;;;;;;;;;;;13.80;85.40;;;;;;6250883;22;19903;-96
2023/05/17 20:04:29;;;;;;;;;;;13.70;85.40;;;;;;6250466;22;19907;-96
2023/05/17 20:07:34;;;;;;;;;;;;;;;;;;;;;
2023/05/17 20:10:29;;;;;;;;;;;13.70;85.60;;;;;;6184219;23;20215;-95
2023/05/17 20:13:15;;;;;;;;;;;13.70;85.70;;;;;;6184620;23;19911;-95
2023/05/17 20:16:01;;;;;;;;;;;13.70;85.80;;;;;;6159389;23;19912;-96
2023/05/17 20:18:47;;;;;;;;;;;13.70;85.80;;;;;;6159508;23;20242;-95
2023/05/17 20:21:33;;;;;;;;;;;13.70;85.90;;;;;;6159570;23;19979;-95
2023/05/17 20:24:22;;;;;;;;;;;13.70;86.00;;;;;;6158722;23;19982;-95
2023/05/17 20:27:28;;;;;;;;;;;13.60;86.00;;;;;;6158893;23;19904;-95
2023/05/17 20:30:16;;;;;;;;;;;13.60;86.00;;;;;;6183520;23;19910;-95
2023/05/17 20:33:05;;;;;;;;;;;13.60;86.20;;;;;;6159011;23;19905;-95
2023/05/17 20:35:42;;;;;;;;;;;13.60;86.20;;;;;;6184284;23;19991;-95
2023/05/17 20:38:30;;;;;;;;;;;13.60;86.30;;;;;;6136407;23;19908;-95
2023/05/17 20:41:16;;;;;;;;;;;13.60;86.40;;;;;;6212830;22;19907;-96
2023/05/17 20:44:05;;;;;;;;;;;13.60;86.40;;;;;;6250088;22;19912;-95
2023/05/17 20:46:55;;;;;;;;;;;13.60;86.40;;;;;;6250785;22;19903;-95
2023/05/17 20:49:54;;;;;;;;;;;13.60;86.50;;;;;;6277909;22;19974;-95
2023/05/17 20:52:40;;;;;;;;;;;13.60;86.60;;;;;;6250521;22;19911;-95
2023/05/17 20:55:26;;;;;;;;;;;13.50;86.60;;;;;;6250610;22;19903;-95
2023/05/17 20:58:14;;;;;;;;;;;13.50;86.70;;;;;;6250558;22;19910;-93
2023/05/17 21:01:01;;;;;;;;;;;13.60;86.90;;;;;;6276741;22;19903;-95
2023/05/17 21:03:50;;;;;;;;;;;13.50;86.90;;;;;;6250355;22;19918;-96
2023/05/17 21:06:38;;;;;;;;;;;13.50;86.90;;;;;;6250674;22;19910;-95
2023/05/17 21:09:24;;;;;;;;;;;13.50;87.00;;;;;;6250956;22;20309;-96
2023/05/17 21:12:10;;;;;;;;;;;13.50;87.00;;;;;;6250055;22;19903;-95
2023/05/17 21:14:56;;;;;;;;;;;13.50;87.10;;;;;;6249549;22;19925;-96
2023/05/17 21:17:42;;;;;;;;;;;13.50;87.20;;;;;;6249729;22;19910;-95
2023/05/17 21:20:28;;;;;;;;;;;13.50;87.30;;;;;;6250365;22;20308;-95
2023/05/17 21:23:14;;;;;;;;;;;13.50;87.30;;;;;;6250308;22;19959;-96
2023/05/17 21:26:00;;;;;;;;;;;13.40;87.30;;;;;;6249704;22;19930;-95
2023/05/17 21:28:46;;;;;;;;;;;13.50;87.40;;;;;;6249563;22;19903;-96
2023/05/17 21:31:32;;;;;;;;;;;13.40;87.40;;;;;;6249855;22;19911;-95
2023/05/17 21:34:03;;;;;;;;;;;13.40;87.50;;;;;;6250366;22;19911;-95
2023/05/17 21:36:48;;;;;;;;;;;13.40;87.60;;;;;;6225813;22;19911;-96
2023/05/17 21:39:34;;;;;;;;;;;13.40;87.70;;;;;;6249733;22;19903;-96
2023/05/17 21:42:35;;;;;;;;;;;13.40;87.80;;;;;;6250093;22;20295;-96
2023/05/17 21:45:20;;;;;;;;;;;13.40;87.80;;;;;;6250528;22;19968;-96
2023/05/17 21:48:06;;;;;;;;;;;13.40;87.80;;;;;;6250246;22;19915;-95
2023/05/17 21:50:51;;;;;;;;;;;13.40;87.90;;;;;;6250810;22;19903;-96
2023/05/17 21:53:37;;;;;;;;;;;13.40;88.00;;;;;;6250447;22;19929;-96
2023/05/17 21:56:23;;;;;;;;;;;13.40;88.10;;;;;;6249843;22;19904;-96
2023/05/17 21:59:09;;;;;;;;;;;13.40;88.20;;;;;;6249949;22;19903;-95
2023/05/17 22:01:56;;;;;;;;;;;13.40;88.20;;;;;;6250080;22;19930;-96
2023/05/17 22:04:44;;;;;;;;;;;13.40;88.30;;;;;;6249575;22;19903;-96
2023/05/17 22:07:12;;;;;;;;;;;13.40;88.30;;;;;;6249931;22;19903;-96
2023/05/17 22:09:59;;;;;;;;;;;13.40;88.40;;;;;;6224857;22;19930;-96
2023/05/17 22:12:45;;;;;;;;;;;13.30;88.40;;;;;;6249041;22;19908;-96
2023/05/17 22:15:34;;;;;;;;;;;13.40;88.50;;;;;;6249557;22;19970;-95
2023/05/17 22:18:19;;;;;;;;;;;13.30;88.50;;;;;;6249830;22;19927;-96
2023/05/17 22:21:05;;;;;;;;;;;13.30;88.60;;;;;;6250339;22;19929;-95
2023/05/17 22:24:07;;;;;;;;;;;13.30;89.30;;;;;;6276625;22;19961;-96
2023/05/17 22:26:56;;;;;;;;;;;13.30;88.60;;;;;;6248856;22;20025;-95
2023/05/17 22:29:42;;;;;;;;;;;13.30;88.70;;;;;;6250796;22;19957;-96
2023/05/17 22:32:31;;;;;;;;;;;13.30;88.80;;;;;;6249073;22;19911;-95